< < Back
Terminal Aerodrome Forecast


Current Version              Previous Versions:   1  2  3  4  5  6  7  8  9  

Terminal Aerodrome Forecast

585
FTUS42 KCHS 272322 CCA
TAFCHS
TAF COR
KCHS 272322Z 2800/2824 14005KT P6SM SCT020
     FM281800 14011KT P6SM SCT040=

Latest METAR

153
SAUS80 KWBC 290200
MTRCHS
METAR KCHS 290156Z 12004KT 10SM CLR 23/17 A3020 RMK AO2 SLP226
T02280172


USA.gov is the U.S. government's official web portal to all federal, state and local government web resources and services.